![]() |
EMODnet Physics ERDDAP
Easier access to scientific data |
log in|
Brought to you by EMODnet Physics |
| Dataset Title: | NDBC - Collection of dew point temperature (DEWT) TimeSeries - IN SITU MultiPointTimeSeriesObservation
|
| Institution: | NDBC (Dataset ID: TS_DEWT_NDBC) |
| Information: | Summary
| License
| FGDC
| ISO 19115
| Metadata
| Background
| Subset
| Data Access Form
| Make a graph
|
| Name | Last modified | Size | Description | |
|---|---|---|---|---|
| Parent Directory | - | - | ||
| 41004_TS_DEWT_011979.nc | 26-Oct-2024 09:08 | 451313 | ||
| 41004_TS_DEWT_011980.nc | 26-Oct-2024 09:08 | 450414 | ||
| 41004_TS_DEWT_011981.nc | 26-Oct-2024 09:08 | 429827 | ||
| 41004_TS_DEWT_011982.nc | 26-Oct-2024 09:08 | 1142530 | ||
| 41004_TS_DEWT_011994.nc | 26-Oct-2024 09:08 | 1267447 | ||
| 41004_TS_DEWT_011995.nc | 26-Oct-2024 09:08 | 1263427 | ||
| 41004_TS_DEWT_011996.nc | 26-Oct-2024 09:08 | 1267508 | ||
| 41004_TS_DEWT_011997.nc | 26-Oct-2024 09:08 | 1021187 | ||
| 41004_TS_DEWT_011998.nc | 26-Oct-2024 09:09 | 5072537 | ||
| 41004_TS_DEWT_011999.nc | 26-Oct-2024 09:09 | 1265483 | ||
| 41004_TS_DEWT_012000.nc | 26-Oct-2024 09:09 | 429603 | ||
| 41004_TS_DEWT_012001.nc | 26-Oct-2024 09:09 | 429606 | ||
| 41004_TS_DEWT_012003.nc | 26-Oct-2024 09:09 | 429506 | ||
| 41004_TS_DEWT_012004.nc | 26-Oct-2024 09:09 | 429589 | ||
| 41004_TS_DEWT_012005.nc | 26-Oct-2024 09:09 | 429590 | ||
| 41004_TS_DEWT_012006.nc | 26-Oct-2024 09:09 | 429608 | ||
| 41004_TS_DEWT_012007.nc | 26-Oct-2024 09:09 | 429614 | ||
| 41004_TS_DEWT_012008.nc | 26-Oct-2024 09:09 | 429608 | ||
| 41004_TS_DEWT_012009.nc | 26-Oct-2024 09:09 | 429606 | ||
| 41004_TS_DEWT_012010.nc | 26-Oct-2024 09:09 | 429613 | ||
| 41004_TS_DEWT_012011.nc | 26-Oct-2024 09:09 | 450638 | ||
| 41004_TS_DEWT_012012.nc | 26-Oct-2024 09:09 | 450990 | ||
| 41004_TS_DEWT_012015.nc | 26-Oct-2024 09:10 | 450692 | ||
| 41004_TS_DEWT_012016.nc | 26-Oct-2024 09:10 | 450881 | ||
| 41004_TS_DEWT_012017.nc | 26-Oct-2024 09:10 | 450204 | ||
| 41004_TS_DEWT_012018.nc | 26-Oct-2024 09:10 | 451534 | ||
| 41004_TS_DEWT_012019.nc | 26-Oct-2024 09:10 | 429828 | ||
| 41004_TS_DEWT_012020.nc | 26-Oct-2024 09:10 | 429842 | ||
| 41004_TS_DEWT_012021.nc | 26-Oct-2024 09:10 | 429826 | ||
| 41004_TS_DEWT_012022.nc | 26-Oct-2024 09:10 | 450882 | ||
| 41004_TS_DEWT_012023.nc | 26-Oct-2024 09:10 | 450174 | ||
| 41004_TS_DEWT_012024.nc | 26-Oct-2024 09:10 | 449798 | ||
| 41004_TS_DEWT_012025.nc | 07-Feb-2025 12:27 | 452020 | ||
| 41004_TS_DEWT_012026.nc | 02-Feb-2026 13:55 | 452225 | ||
| 41004_TS_DEWT_021979.nc | 26-Oct-2024 09:10 | 451033 | ||
| 41004_TS_DEWT_021980.nc | 26-Oct-2024 09:10 | 1267335 | ||
| 41004_TS_DEWT_021981.nc | 26-Oct-2024 09:10 | 1203304 | ||
| 41004_TS_DEWT_021982.nc | 26-Oct-2024 09:10 | 1144067 | ||
| 41004_TS_DEWT_021986.nc | 26-Oct-2024 09:11 | 1266150 | ||
| 41004_TS_DEWT_021994.nc | 26-Oct-2024 09:11 | 1268265 | ||
| 41004_TS_DEWT_021995.nc | 26-Oct-2024 09:11 | 1265546 | ||
| 41004_TS_DEWT_021996.nc | 26-Oct-2024 09:11 | 1008554 | ||
| 41004_TS_DEWT_021997.nc | 26-Oct-2024 09:11 | 4553548 | ||
| 41004_TS_DEWT_021998.nc | 26-Oct-2024 09:11 | 3119808 | ||
| 41004_TS_DEWT_021999.nc | 26-Oct-2024 09:11 | 428589 | ||
| 41004_TS_DEWT_022000.nc | 26-Oct-2024 09:11 | 418799 | ||
| 41004_TS_DEWT_022001.nc | 26-Oct-2024 09:11 | 419369 | ||
| 41004_TS_DEWT_022002.nc | 26-Oct-2024 09:11 | 428604 | ||
| 41004_TS_DEWT_022003.nc | 26-Oct-2024 09:11 | 428275 | ||
| 41004_TS_DEWT_022004.nc | 26-Oct-2024 09:11 | 428449 | ||
| 41004_TS_DEWT_022005.nc | 26-Oct-2024 09:12 | 428613 | ||
| 41004_TS_DEWT_022006.nc | 26-Oct-2024 09:12 | 428958 | ||
| 41004_TS_DEWT_022007.nc | 26-Oct-2024 09:12 | 428610 | ||
| 41004_TS_DEWT_022008.nc | 26-Oct-2024 09:12 | 428612 | ||
| 41004_TS_DEWT_022009.nc | 26-Oct-2024 09:12 | 428610 | ||
| 41004_TS_DEWT_022010.nc | 26-Oct-2024 09:12 | 448251 | ||
| 41004_TS_DEWT_022011.nc | 26-Oct-2024 09:12 | 446675 | ||
| 41004_TS_DEWT_022012.nc | 26-Oct-2024 09:12 | 428193 | ||
| 41004_TS_DEWT_022015.nc | 26-Oct-2024 09:12 | 447662 | ||
| 41004_TS_DEWT_022016.nc | 26-Oct-2024 09:12 | 447087 | ||
| 41004_TS_DEWT_022017.nc | 26-Oct-2024 09:12 | 447874 | ||
| 41004_TS_DEWT_022018.nc | 26-Oct-2024 09:12 | 447667 | ||
| 41004_TS_DEWT_022019.nc | 26-Oct-2024 09:12 | 428788 | ||
| 41004_TS_DEWT_022020.nc | 26-Oct-2024 09:12 | 429152 | ||
| 41004_TS_DEWT_022021.nc | 26-Oct-2024 09:12 | 428801 | ||
| 41004_TS_DEWT_022022.nc | 26-Oct-2024 09:13 | 447245 | ||
| 41004_TS_DEWT_022023.nc | 26-Oct-2024 09:13 | 447446 | ||
| 41004_TS_DEWT_022024.nc | 16-Sep-2024 16:51 | 449230 | ||
| 41004_TS_DEWT_022025.nc | 01-Mar-2025 09:27 | 447301 | ||
| 41004_TS_DEWT_022026.nc | 01-Mar-2026 13:01 | 448376 | ||
| 41004_TS_DEWT_031979.nc | 26-Oct-2024 09:13 | 447383 | ||
| 41004_TS_DEWT_031982.nc | 26-Oct-2024 09:13 | 1026675 | ||
| 41004_TS_DEWT_031986.nc | 26-Oct-2024 09:13 | 919453 | ||
| 41004_TS_DEWT_031994.nc | 26-Oct-2024 09:13 | 993531 | ||
| 41004_TS_DEWT_031995.nc | 26-Oct-2024 09:13 | 995482 | ||
| 41004_TS_DEWT_031996.nc | 26-Oct-2024 09:13 | 1029647 | ||
| 41004_TS_DEWT_031997.nc | 26-Oct-2024 09:13 | 1028438 | ||
| 41004_TS_DEWT_031998.nc | 26-Oct-2024 09:13 | 424555 | ||
| 41004_TS_DEWT_031999.nc | 26-Oct-2024 09:13 | 3259499 | ||
| 41004_TS_DEWT_032000.nc | 26-Oct-2024 09:13 | 5129792 | ||
| 41004_TS_DEWT_032001.nc | 26-Oct-2024 09:13 | 429585 | ||
| 41004_TS_DEWT_032002.nc | 26-Oct-2024 09:13 | 429604 | ||
| 41004_TS_DEWT_032003.nc | 26-Oct-2024 09:13 | 422842 | ||
| 41004_TS_DEWT_032004.nc | 26-Oct-2024 09:13 | 429619 | ||
| 41004_TS_DEWT_032005.nc | 26-Oct-2024 09:14 | 429612 | ||
| 41004_TS_DEWT_032006.nc | 26-Oct-2024 09:14 | 429614 | ||
| 41004_TS_DEWT_032007.nc | 26-Oct-2024 09:14 | 429620 | ||
| 41004_TS_DEWT_032008.nc | 26-Oct-2024 09:14 | 429607 | ||
| 41004_TS_DEWT_032009.nc | 26-Oct-2024 09:14 | 429608 | ||
| 41004_TS_DEWT_032010.nc | 26-Oct-2024 09:14 | 450380 | ||
| 41004_TS_DEWT_032011.nc | 26-Oct-2024 09:14 | 451030 | ||
| 41004_TS_DEWT_032012.nc | 26-Oct-2024 09:14 | 450514 | ||
| 41004_TS_DEWT_032015.nc | 26-Oct-2024 09:14 | 450108 | ||
| 41004_TS_DEWT_032016.nc | 26-Oct-2024 09:14 | 449636 | ||
| 41004_TS_DEWT_032017.nc | 26-Oct-2024 09:14 | 450115 | ||
| 41004_TS_DEWT_032018.nc | 26-Oct-2024 09:14 | 451061 | ||
| 41004_TS_DEWT_032019.nc | 26-Oct-2024 09:14 | 429816 | ||
| 41004_TS_DEWT_032020.nc | 26-Oct-2024 09:14 | 429833 | ||
| 41004_TS_DEWT_032022.nc | 26-Oct-2024 09:14 | 429833 | ||
| 41004_TS_DEWT_032023.nc | 26-Oct-2024 09:14 | 450962 | ||
| 41004_TS_DEWT_032025.nc | 02-Apr-2025 07:42 | 450719 | ||
| 41004_TS_DEWT_032026.nc | 21-Mar-2026 17:05 | 451244 | ||
| 41004_TS_DEWT_041979.nc | 26-Oct-2024 09:15 | 451029 | ||
| 41004_TS_DEWT_041982.nc | 26-Oct-2024 09:15 | 451392 | ||
| 41004_TS_DEWT_041994.nc | 26-Oct-2024 09:15 | 450985 | ||
| 41004_TS_DEWT_041995.nc | 26-Oct-2024 09:15 | 1269615 | ||
| 41004_TS_DEWT_041996.nc | 26-Oct-2024 09:15 | 1143328 | ||
| 41004_TS_DEWT_041997.nc | 26-Oct-2024 09:15 | 1204396 | ||
| 41004_TS_DEWT_041998.nc | 26-Oct-2024 09:15 | 1268578 | ||
| 41004_TS_DEWT_041999.nc | 26-Oct-2024 09:15 | 1270180 | ||
| 41004_TS_DEWT_042000.nc | 26-Oct-2024 09:15 | 4268829 | ||
| 41004_TS_DEWT_042001.nc | 26-Oct-2024 09:15 | 3482625 | ||
| 41004_TS_DEWT_042002.nc | 26-Oct-2024 09:15 | 429261 | ||
| 41004_TS_DEWT_042003.nc | 26-Oct-2024 09:15 | 429260 | ||
| 41004_TS_DEWT_042004.nc | 26-Oct-2024 09:15 | 429178 | ||
| 41004_TS_DEWT_042005.nc | 26-Oct-2024 09:15 | 429293 | ||
| 41004_TS_DEWT_042006.nc | 26-Oct-2024 09:16 | 429281 | ||
| 41004_TS_DEWT_042007.nc | 26-Oct-2024 09:16 | 422948 | ||
| 41004_TS_DEWT_042008.nc | 26-Oct-2024 09:16 | 429292 | ||
| 41004_TS_DEWT_042009.nc | 26-Oct-2024 09:16 | 429287 | ||
| 41004_TS_DEWT_042010.nc | 26-Oct-2024 09:16 | 449915 | ||
| 41004_TS_DEWT_042011.nc | 26-Oct-2024 09:16 | 450179 | ||
| 41004_TS_DEWT_042012.nc | 26-Oct-2024 09:16 | 448780 | ||
| 41004_TS_DEWT_042014.nc | 26-Oct-2024 09:16 | 449418 | ||
| 41004_TS_DEWT_042015.nc | 26-Oct-2024 09:16 | 449549 | ||
| 41004_TS_DEWT_042016.nc | 26-Oct-2024 09:16 | 429489 | ||
| 41004_TS_DEWT_042017.nc | 26-Oct-2024 09:16 | 449584 | ||
| 41004_TS_DEWT_042018.nc | 26-Oct-2024 09:16 | 429489 | ||
| 41004_TS_DEWT_042019.nc | 26-Oct-2024 09:16 | 429477 | ||
| 41004_TS_DEWT_042020.nc | 26-Oct-2024 09:16 | 429490 | ||
| 41004_TS_DEWT_042022.nc | 26-Oct-2024 09:17 | 449253 | ||
| 41004_TS_DEWT_042023.nc | 26-Oct-2024 09:17 | 448763 | ||
| 41004_TS_DEWT_042025.nc | 01-May-2025 04:52 | 450732 | ||
| 41004_TS_DEWT_051979.nc | 26-Oct-2024 09:17 | 426942 | ||
| 41004_TS_DEWT_051980.nc | 26-Oct-2024 09:17 | 449420 | ||
| 41004_TS_DEWT_051982.nc | 26-Oct-2024 09:17 | 448965 | ||
| 41004_TS_DEWT_051994.nc | 26-Oct-2024 09:17 | 649166 | ||
| 41004_TS_DEWT_051995.nc | 26-Oct-2024 09:17 | 1087304 | ||
| 41004_TS_DEWT_051996.nc | 26-Oct-2024 09:17 | 995728 | ||
| 41004_TS_DEWT_051997.nc | 26-Oct-2024 09:17 | 1047580 | ||
| 41004_TS_DEWT_051998.nc | 26-Oct-2024 09:17 | 1115133 | ||
| 41004_TS_DEWT_051999.nc | 26-Oct-2024 09:17 | 1115706 | ||
| 41004_TS_DEWT_052000.nc | 26-Oct-2024 09:17 | 4687661 | ||
| 41004_TS_DEWT_052001.nc | 26-Oct-2024 09:17 | 429581 | ||
| 41004_TS_DEWT_052002.nc | 26-Oct-2024 09:18 | 424958 | ||
| 41004_TS_DEWT_052003.nc | 26-Oct-2024 09:18 | 429599 | ||
| 41004_TS_DEWT_052004.nc | 26-Oct-2024 09:18 | 429609 | ||
| 41004_TS_DEWT_052005.nc | 26-Oct-2024 09:18 | 429608 | ||
| 41004_TS_DEWT_052006.nc | 26-Oct-2024 09:18 | 429621 | ||
| 41004_TS_DEWT_052007.nc | 26-Oct-2024 09:18 | 429611 | ||
| 41004_TS_DEWT_052008.nc | 26-Oct-2024 09:18 | 429608 | ||
| 41004_TS_DEWT_052009.nc | 26-Oct-2024 09:18 | 419239 | ||
| 41004_TS_DEWT_052010.nc | 26-Oct-2024 09:18 | 451324 | ||
| 41004_TS_DEWT_052011.nc | 26-Oct-2024 09:18 | 450088 | ||
| 41004_TS_DEWT_052012.nc | 26-Oct-2024 09:18 | 449745 | ||
| 41004_TS_DEWT_052014.nc | 26-Oct-2024 09:18 | 450841 | ||
| 41004_TS_DEWT_052015.nc | 26-Oct-2024 09:18 | 451705 | ||
| 41004_TS_DEWT_052016.nc | 26-Oct-2024 09:18 | 429831 | ||
| 41004_TS_DEWT_052017.nc | 26-Oct-2024 09:18 | 442774 | ||
| 41004_TS_DEWT_052018.nc | 26-Oct-2024 09:19 | 429815 | ||
| 41004_TS_DEWT_052019.nc | 26-Oct-2024 09:19 | 429831 | ||
| 41004_TS_DEWT_052020.nc | 26-Oct-2024 09:19 | 429828 | ||
| 41004_TS_DEWT_052022.nc | 26-Oct-2024 09:19 | 449346 | ||
| 41004_TS_DEWT_052023.nc | 26-Oct-2024 09:19 | 450855 | ||
| 41004_TS_DEWT_052025.nc | 01-Jun-2025 05:05 | 451157 | ||
| 41004_TS_DEWT_061978.nc | 26-Oct-2024 09:19 | 450732 | ||
| 41004_TS_DEWT_061979.nc | 26-Oct-2024 09:19 | 450487 | ||
| 41004_TS_DEWT_061980.nc | 26-Oct-2024 09:19 | 450570 | ||
| 41004_TS_DEWT_061981.nc | 26-Oct-2024 09:19 | 1114428 | ||
| 41004_TS_DEWT_061982.nc | 26-Oct-2024 09:19 | 1144097 | ||
| 41004_TS_DEWT_061994.nc | 26-Oct-2024 09:19 | 1162178 | ||
| 41004_TS_DEWT_061995.nc | 26-Oct-2024 09:19 | 1174218 | ||
| 41004_TS_DEWT_061996.nc | 26-Oct-2024 09:20 | 1264779 | ||
| 41004_TS_DEWT_061997.nc | 26-Oct-2024 09:20 | 1268859 | ||
| 41004_TS_DEWT_061998.nc | 26-Oct-2024 09:20 | 5377759 | ||
| 41004_TS_DEWT_061999.nc | 26-Oct-2024 09:20 | 420045 | ||
| 41004_TS_DEWT_062000.nc | 26-Oct-2024 09:20 | 429258 | ||
| 41004_TS_DEWT_062001.nc | 26-Oct-2024 09:20 | 418795 | ||
| 41004_TS_DEWT_062002.nc | 26-Oct-2024 09:20 | 420650 | ||
| 41004_TS_DEWT_062003.nc | 26-Oct-2024 09:20 | 429265 | ||
| 41004_TS_DEWT_062004.nc | 26-Oct-2024 09:20 | 429024 | ||
| 41004_TS_DEWT_062005.nc | 26-Oct-2024 09:20 | 429277 | ||
| 41004_TS_DEWT_062006.nc | 26-Oct-2024 09:20 | 429287 | ||
| 41004_TS_DEWT_062007.nc | 26-Oct-2024 09:20 | 429294 | ||
| 41004_TS_DEWT_062008.nc | 26-Oct-2024 09:20 | 429289 | ||
| 41004_TS_DEWT_062009.nc | 26-Oct-2024 09:20 | 437340 | ||
| 41004_TS_DEWT_062010.nc | 26-Oct-2024 09:20 | 448943 | ||
| 41004_TS_DEWT_062011.nc | 26-Oct-2024 09:21 | 448905 | ||
| 41004_TS_DEWT_062012.nc | 26-Oct-2024 09:21 | 448073 | ||
| 41004_TS_DEWT_062014.nc | 26-Oct-2024 09:21 | 449493 | ||
| 41004_TS_DEWT_062015.nc | 26-Oct-2024 09:21 | 448353 | ||
| 41004_TS_DEWT_062016.nc | 26-Oct-2024 09:21 | 429493 | ||
| 41004_TS_DEWT_062017.nc | 26-Oct-2024 09:21 | 429490 | ||
| 41004_TS_DEWT_062018.nc | 26-Oct-2024 09:21 | 429492 | ||
| 41004_TS_DEWT_062019.nc | 26-Oct-2024 09:21 | 429493 | ||
| 41004_TS_DEWT_062020.nc | 26-Oct-2024 09:21 | 429490 | ||
| 41004_TS_DEWT_062022.nc | 26-Oct-2024 09:21 | 449034 | ||
| 41004_TS_DEWT_062023.nc | 26-Oct-2024 09:21 | 448805 | ||
| 41004_TS_DEWT_062025.nc | 02-Jul-2025 04:21 | 449111 | ||
| 41004_TS_DEWT_071978.nc | 26-Oct-2024 09:22 | 449634 | ||
| 41004_TS_DEWT_071979.nc | 26-Oct-2024 09:22 | 448930 | ||
| 41004_TS_DEWT_071980.nc | 26-Oct-2024 09:22 | 449323 | ||
| 41004_TS_DEWT_071981.nc | 26-Oct-2024 09:22 | 1115919 | ||
| 41004_TS_DEWT_071982.nc | 26-Oct-2024 09:22 | 1007659 | ||
| 41004_TS_DEWT_071994.nc | 26-Oct-2024 09:22 | 1030707 | ||
| 41004_TS_DEWT_071995.nc | 26-Oct-2024 09:22 | 1103082 | ||
| 41004_TS_DEWT_071996.nc | 26-Oct-2024 09:22 | 1115688 | ||
| 41004_TS_DEWT_071997.nc | 26-Oct-2024 09:22 | 1112955 | ||
| 41004_TS_DEWT_071998.nc | 26-Oct-2024 09:22 | 5203848 | ||
| 41004_TS_DEWT_071999.nc | 26-Oct-2024 09:22 | 429619 | ||
| 41004_TS_DEWT_072000.nc | 26-Oct-2024 09:22 | 429606 | ||
| 41004_TS_DEWT_072001.nc | 26-Oct-2024 09:22 | 429606 | ||
| 41004_TS_DEWT_072002.nc | 26-Oct-2024 09:22 | 420125 | ||
| 41004_TS_DEWT_072003.nc | 26-Oct-2024 09:22 | 428227 | ||
| 41004_TS_DEWT_072004.nc | 26-Oct-2024 09:23 | 429608 | ||
| 41004_TS_DEWT_072005.nc | 26-Oct-2024 09:23 | 429599 | ||
| 41004_TS_DEWT_072006.nc | 26-Oct-2024 09:23 | 429609 | ||
| 41004_TS_DEWT_072007.nc | 26-Oct-2024 09:23 | 429608 | ||
| 41004_TS_DEWT_072008.nc | 26-Oct-2024 09:23 | 429619 | ||
| 41004_TS_DEWT_072009.nc | 26-Oct-2024 09:23 | 450468 | ||
| 41004_TS_DEWT_072010.nc | 26-Oct-2024 09:23 | 451085 | ||
| 41004_TS_DEWT_072011.nc | 26-Oct-2024 09:23 | 451138 | ||
| 41004_TS_DEWT_072012.nc | 26-Oct-2024 09:23 | 450903 | ||
| 41004_TS_DEWT_072014.nc | 26-Oct-2024 09:23 | 451024 | ||
| 41004_TS_DEWT_072015.nc | 26-Oct-2024 09:23 | 449546 | ||
| 41004_TS_DEWT_072016.nc | 26-Oct-2024 09:23 | 429832 | ||
| 41004_TS_DEWT_072017.nc | 26-Oct-2024 09:24 | 429829 | ||
| 41004_TS_DEWT_072018.nc | 26-Oct-2024 09:24 | 429836 | ||
| 41004_TS_DEWT_072019.nc | 26-Oct-2024 09:24 | 429827 | ||
| 41004_TS_DEWT_072020.nc | 26-Oct-2024 09:24 | 429832 | ||
| 41004_TS_DEWT_072021.nc | 26-Oct-2024 09:24 | 449781 | ||
| 41004_TS_DEWT_072022.nc | 26-Oct-2024 09:24 | 450556 | ||
| 41004_TS_DEWT_072023.nc | 26-Oct-2024 09:24 | 451213 | ||
| 41004_TS_DEWT_072025.nc | 01-Aug-2025 05:20 | 450094 | ||
| 41004_TS_DEWT_081978.nc | 26-Oct-2024 09:24 | 450174 | ||
| 41004_TS_DEWT_081979.nc | 26-Oct-2024 09:24 | 449833 | ||
| 41004_TS_DEWT_081980.nc | 26-Oct-2024 09:24 | 1267112 | ||
| 41004_TS_DEWT_081994.nc | 26-Oct-2024 09:24 | 1264188 | ||
| 41004_TS_DEWT_081995.nc | 26-Oct-2024 09:25 | 1265873 | ||
| 41004_TS_DEWT_081996.nc | 26-Oct-2024 09:25 | 1025243 | ||
| 41004_TS_DEWT_081997.nc | 26-Oct-2024 09:25 | 991095 | ||
| 41004_TS_DEWT_081998.nc | 26-Oct-2024 09:25 | 1264755 | ||
| 41004_TS_DEWT_081999.nc | 26-Oct-2024 09:25 | 1267658 | ||
| 41004_TS_DEWT_082000.nc | 26-Oct-2024 09:25 | 4316500 | ||
| 41004_TS_DEWT_082001.nc | 26-Oct-2024 09:25 | 429582 | ||
| 41004_TS_DEWT_082002.nc | 26-Oct-2024 09:25 | 429595 | ||
| 41004_TS_DEWT_082003.nc | 26-Oct-2024 09:25 | 429603 | ||
| 41004_TS_DEWT_082004.nc | 26-Oct-2024 09:25 | 429607 | ||
| 41004_TS_DEWT_082005.nc | 26-Oct-2024 09:25 | 429608 | ||
| 41004_TS_DEWT_082006.nc | 26-Oct-2024 09:25 | 429615 | ||
| 41004_TS_DEWT_082007.nc | 26-Oct-2024 09:25 | 429611 | ||
| 41004_TS_DEWT_082008.nc | 26-Oct-2024 09:25 | 428256 | ||
| 41004_TS_DEWT_082009.nc | 26-Oct-2024 09:26 | 450075 | ||
| 41004_TS_DEWT_082010.nc | 26-Oct-2024 09:26 | 451176 | ||
| 41004_TS_DEWT_082011.nc | 26-Oct-2024 09:26 | 450662 | ||
| 41004_TS_DEWT_082014.nc | 26-Oct-2024 09:26 | 450799 | ||
| 41004_TS_DEWT_082015.nc | 26-Oct-2024 09:26 | 435664 | ||
| 41004_TS_DEWT_082016.nc | 26-Oct-2024 09:26 | 449905 | ||
| 41004_TS_DEWT_082017.nc | 26-Oct-2024 09:26 | 440435 | ||
| 41004_TS_DEWT_082018.nc | 26-Oct-2024 09:26 | 429833 | ||
| 41004_TS_DEWT_082019.nc | 26-Oct-2024 09:26 | 418799 | ||
| 41004_TS_DEWT_082020.nc | 26-Oct-2024 09:26 | 429832 | ||
| 41004_TS_DEWT_082021.nc | 26-Oct-2024 09:26 | 429789 | ||
| 41004_TS_DEWT_082022.nc | 26-Oct-2024 09:26 | 450691 | ||
| 41004_TS_DEWT_082023.nc | 26-Oct-2024 09:26 | 449644 | ||
| 41004_TS_DEWT_082025.nc | 01-Sep-2025 05:08 | 450253 | ||
| 41004_TS_DEWT_091978.nc | 26-Oct-2024 09:26 | 450393 | ||
| 41004_TS_DEWT_091979.nc | 26-Oct-2024 09:27 | 450925 | ||
| 41004_TS_DEWT_091980.nc | 26-Oct-2024 09:27 | 1269287 | ||
| 41004_TS_DEWT_091981.nc | 26-Oct-2024 09:27 | 1267286 | ||
| 41004_TS_DEWT_091994.nc | 26-Oct-2024 09:27 | 1264987 | ||
| 41004_TS_DEWT_091995.nc | 26-Oct-2024 09:27 | 1262285 | ||
| 41004_TS_DEWT_091996.nc | 26-Oct-2024 09:27 | 1266740 | ||
| 41004_TS_DEWT_091997.nc | 26-Oct-2024 09:27 | 1265879 | ||
| 41004_TS_DEWT_091998.nc | 26-Oct-2024 09:27 | 1270139 | ||
| 41004_TS_DEWT_091999.nc | 26-Oct-2024 09:27 | 5365462 | ||
| 41004_TS_DEWT_092000.nc | 26-Oct-2024 09:27 | 425174 | ||
| 41004_TS_DEWT_092001.nc | 26-Oct-2024 09:27 | 429269 | ||
| 41004_TS_DEWT_092002.nc | 26-Oct-2024 09:27 | 429265 | ||
| 41004_TS_DEWT_092003.nc | 26-Oct-2024 09:28 | 426973 | ||
| 41004_TS_DEWT_092004.nc | 26-Oct-2024 09:28 | 429273 | ||
| 41004_TS_DEWT_092005.nc | 26-Oct-2024 09:28 | 429272 | ||
| 41004_TS_DEWT_092006.nc | 26-Oct-2024 09:28 | 420612 | ||
| 41004_TS_DEWT_092008.nc | 26-Oct-2024 09:28 | 429285 | ||
| 41004_TS_DEWT_092009.nc | 26-Oct-2024 09:28 | 429290 | ||
| 41004_TS_DEWT_092010.nc | 26-Oct-2024 09:28 | 433764 | ||
| 41004_TS_DEWT_092011.nc | 26-Oct-2024 09:28 | 449260 | ||
| 41004_TS_DEWT_092012.nc | 26-Oct-2024 09:28 | 449740 | ||
| 41004_TS_DEWT_092014.nc | 26-Oct-2024 09:28 | 447717 | ||
| 41004_TS_DEWT_092015.nc | 26-Oct-2024 09:28 | 425799 | ||
| 41004_TS_DEWT_092016.nc | 26-Oct-2024 09:28 | 436554 | ||
| 41004_TS_DEWT_092017.nc | 26-Oct-2024 09:28 | 449936 | ||
| 41004_TS_DEWT_092018.nc | 26-Oct-2024 09:28 | 429492 | ||
| 41004_TS_DEWT_092019.nc | 26-Oct-2024 09:29 | 429477 | ||
| 41004_TS_DEWT_092020.nc | 26-Oct-2024 09:29 | 440172 | ||
| 41004_TS_DEWT_092021.nc | 26-Oct-2024 09:29 | 448303 | ||
| 41004_TS_DEWT_092022.nc | 26-Oct-2024 09:29 | 449621 | ||
| 41004_TS_DEWT_092023.nc | 26-Oct-2024 09:29 | 449813 | ||
| 41004_TS_DEWT_092025.nc | 01-Oct-2025 04:52 | 449295 | ||
| 41004_TS_DEWT_101978.nc | 26-Oct-2024 09:29 | 449605 | ||
| 41004_TS_DEWT_101979.nc | 26-Oct-2024 09:29 | 450115 | ||
| 41004_TS_DEWT_101980.nc | 26-Oct-2024 09:29 | 1113431 | ||
| 41004_TS_DEWT_101981.nc | 26-Oct-2024 09:29 | 1111262 | ||
| 41004_TS_DEWT_101994.nc | 26-Oct-2024 09:29 | 1014651 | ||
| 41004_TS_DEWT_101995.nc | 26-Oct-2024 09:29 | 1115317 | ||
| 41004_TS_DEWT_101997.nc | 26-Oct-2024 09:29 | 1115634 | ||
| 41004_TS_DEWT_101998.nc | 26-Oct-2024 09:29 | 1116237 | ||
| 41004_TS_DEWT_102000.nc | 26-Oct-2024 09:29 | 1112914 | ||
| 41004_TS_DEWT_102001.nc | 26-Oct-2024 09:29 | 4881004 | ||
| 41004_TS_DEWT_102002.nc | 26-Oct-2024 09:30 | 422918 | ||
| 41004_TS_DEWT_102003.nc | 26-Oct-2024 09:30 | 429574 | ||
| 41004_TS_DEWT_102004.nc | 26-Oct-2024 09:30 | 429600 | ||
| 41004_TS_DEWT_102005.nc | 26-Oct-2024 09:30 | 429321 | ||
| 41004_TS_DEWT_102006.nc | 26-Oct-2024 09:30 | 429606 | ||
| 41004_TS_DEWT_102007.nc | 26-Oct-2024 09:30 | 429617 | ||
| 41004_TS_DEWT_102008.nc | 26-Oct-2024 09:30 | 429608 | ||
| 41004_TS_DEWT_102010.nc | 26-Oct-2024 09:30 | 429612 | ||
| 41004_TS_DEWT_102011.nc | 26-Oct-2024 09:30 | 450267 | ||
| 41004_TS_DEWT_102012.nc | 26-Oct-2024 09:30 | 449964 | ||
| 41004_TS_DEWT_102014.nc | 26-Oct-2024 09:30 | 450881 | ||
| 41004_TS_DEWT_102015.nc | 26-Oct-2024 09:30 | 449469 | ||
| 41004_TS_DEWT_102016.nc | 26-Oct-2024 09:30 | 436750 | ||
| 41004_TS_DEWT_102017.nc | 26-Oct-2024 09:31 | 451321 | ||
| 41004_TS_DEWT_102018.nc | 26-Oct-2024 09:31 | 429828 | ||
| 41004_TS_DEWT_102019.nc | 26-Oct-2024 09:31 | 421048 | ||
| 41004_TS_DEWT_102020.nc | 26-Oct-2024 09:31 | 429833 | ||
| 41004_TS_DEWT_102021.nc | 26-Oct-2024 09:31 | 449766 | ||
| 41004_TS_DEWT_102022.nc | 26-Oct-2024 09:31 | 450851 | ||
| 41004_TS_DEWT_102023.nc | 26-Oct-2024 09:31 | 418799 | ||
| 41004_TS_DEWT_102024.nc | 12-Jan-2025 20:59 | 451197 | ||
| 41004_TS_DEWT_102025.nc | 01-Nov-2025 08:01 | 450841 | ||
| 41004_TS_DEWT_111978.nc | 26-Oct-2024 09:31 | 451276 | ||
| 41004_TS_DEWT_111979.nc | 26-Oct-2024 09:31 | 1265844 | ||
| 41004_TS_DEWT_111980.nc | 26-Oct-2024 09:31 | 1268013 | ||
| 41004_TS_DEWT_111981.nc | 26-Oct-2024 09:31 | 1144111 | ||
| 41004_TS_DEWT_111994.nc | 26-Oct-2024 09:31 | 1264239 | ||
| 41004_TS_DEWT_111995.nc | 26-Oct-2024 09:31 | 1264880 | ||
| 41004_TS_DEWT_111997.nc | 26-Oct-2024 09:31 | 1260811 | ||
| 41004_TS_DEWT_111998.nc | 26-Oct-2024 09:31 | 1267830 | ||
| 41004_TS_DEWT_111999.nc | 26-Oct-2024 09:32 | 494029 | ||
| 41004_TS_DEWT_112000.nc | 26-Oct-2024 09:32 | 5433718 | ||
| 41004_TS_DEWT_112001.nc | 26-Oct-2024 09:32 | 429271 | ||
| 41004_TS_DEWT_112002.nc | 26-Oct-2024 09:32 | 428323 | ||
| 41004_TS_DEWT_112003.nc | 26-Oct-2024 09:32 | 429265 | ||
| 41004_TS_DEWT_112004.nc | 26-Oct-2024 09:32 | 429265 | ||
| 41004_TS_DEWT_112005.nc | 26-Oct-2024 09:32 | 429272 | ||
| 41004_TS_DEWT_112006.nc | 26-Oct-2024 09:32 | 429260 | ||
| 41004_TS_DEWT_112007.nc | 26-Oct-2024 09:32 | 429284 | ||
| 41004_TS_DEWT_112008.nc | 26-Oct-2024 09:32 | 429279 | ||
| 41004_TS_DEWT_112009.nc | 26-Oct-2024 09:32 | 442590 | ||
| 41004_TS_DEWT_112010.nc | 26-Oct-2024 09:32 | 449048 | ||
| 41004_TS_DEWT_112011.nc | 26-Oct-2024 09:32 | 448449 | ||
| 41004_TS_DEWT_112014.nc | 26-Oct-2024 09:32 | 449000 | ||
| 41004_TS_DEWT_112015.nc | 26-Oct-2024 09:32 | 450331 | ||
| 41004_TS_DEWT_112016.nc | 26-Oct-2024 09:32 | 449283 | ||
| 41004_TS_DEWT_112017.nc | 26-Oct-2024 09:32 | 450054 | ||
| 41004_TS_DEWT_112018.nc | 26-Oct-2024 09:32 | 429487 | ||
| 41004_TS_DEWT_112019.nc | 26-Oct-2024 09:33 | 429491 | ||
| 41004_TS_DEWT_112020.nc | 26-Oct-2024 09:33 | 429489 | ||
| 41004_TS_DEWT_112021.nc | 26-Oct-2024 09:33 | 424712 | ||
| 41004_TS_DEWT_112022.nc | 26-Oct-2024 09:33 | 449129 | ||
| 41004_TS_DEWT_112023.nc | 26-Oct-2024 09:33 | 449614 | ||
| 41004_TS_DEWT_112024.nc | 17-Jan-2025 15:20 | 450035 | ||
| 41004_TS_DEWT_112025.nc | 01-Dec-2025 10:08 | 449324 | ||
| 41004_TS_DEWT_121978.nc | 26-Oct-2024 09:33 | 449105 | ||
| 41004_TS_DEWT_121979.nc | 26-Oct-2024 09:33 | 1114746 | ||
| 41004_TS_DEWT_121980.nc | 26-Oct-2024 09:33 | 1072576 | ||
| 41004_TS_DEWT_121981.nc | 26-Oct-2024 09:33 | 995756 | ||
| 41004_TS_DEWT_121994.nc | 26-Oct-2024 09:33 | 1108259 | ||
| 41004_TS_DEWT_121995.nc | 26-Oct-2024 09:33 | 1115706 | ||
| 41004_TS_DEWT_121997.nc | 26-Oct-2024 09:33 | 1113263 | ||
| 41004_TS_DEWT_121998.nc | 26-Oct-2024 09:33 | 1114254 | ||
| 41004_TS_DEWT_121999.nc | 26-Oct-2024 09:33 | 5747675 | ||
| 41004_TS_DEWT_122000.nc | 26-Oct-2024 09:33 | 5256954 | ||
| 41004_TS_DEWT_122001.nc | 26-Oct-2024 09:33 | 429606 | ||
| 41004_TS_DEWT_122002.nc | 26-Oct-2024 09:33 | 429604 | ||
| 41004_TS_DEWT_122003.nc | 26-Oct-2024 09:34 | 429581 | ||
| 41004_TS_DEWT_122004.nc | 26-Oct-2024 09:34 | 429499 | ||
| 41004_TS_DEWT_122005.nc | 26-Oct-2024 09:34 | 429614 | ||
| 41004_TS_DEWT_122006.nc | 26-Oct-2024 09:34 | 429614 | ||
| 41004_TS_DEWT_122007.nc | 26-Oct-2024 09:34 | 429615 | ||
| 41004_TS_DEWT_122008.nc | 26-Oct-2024 09:34 | 429618 | ||
| 41004_TS_DEWT_122009.nc | 26-Oct-2024 09:34 | 449895 | ||
| 41004_TS_DEWT_122010.nc | 26-Oct-2024 09:34 | 449798 | ||
| 41004_TS_DEWT_122011.nc | 26-Oct-2024 09:34 | 434524 | ||
| 41004_TS_DEWT_122014.nc | 26-Oct-2024 09:34 | 450748 | ||
| 41004_TS_DEWT_122015.nc | 26-Oct-2024 09:34 | 450507 | ||
| 41004_TS_DEWT_122016.nc | 26-Oct-2024 09:34 | 450236 | ||
| 41004_TS_DEWT_122017.nc | 26-Oct-2024 09:34 | 451061 | ||
| 41004_TS_DEWT_122018.nc | 26-Oct-2024 09:35 | 429836 | ||
| 41004_TS_DEWT_122019.nc | 26-Oct-2024 09:35 | 429727 | ||
| 41004_TS_DEWT_122020.nc | 26-Oct-2024 09:35 | 429816 | ||
| 41004_TS_DEWT_122021.nc | 26-Oct-2024 09:35 | 449870 | ||
| 41004_TS_DEWT_122022.nc | 26-Oct-2024 09:35 | 450291 | ||
| 41004_TS_DEWT_122023.nc | 26-Oct-2024 09:35 | 451548 | ||
| 41004_TS_DEWT_122024.nc | 22-Jan-2025 16:48 | 450771 | ||
| 41004_TS_DEWT_122025.nc | 01-Jan-2026 09:50 | 450433 | ||